sensor_id;sensor_type;location;lat;lon;timestamp;temperature;humidity
1137;DHT22;557;48.466;7.950;2023-06-01T00:00:08;14.70;1.00
1137;DHT22;557;48.466;7.950;2023-06-01T00:02:56;14.70;35.30
1137;DHT22;557;48.466;7.950;2023-06-01T00:05:44;14.60;99.90
1137;DHT22;557;48.466;7.950;2023-06-01T00:08:31;14.60;1.00
1137;DHT22;557;48.466;7.950;2023-06-01T00:11:18;14.50;1.00
1137;DHT22;557;48.466;7.950;2023-06-01T00:14:07;14.40;1.00
1137;DHT22;557;48.466;7.950;2023-06-01T00:16:55;14.30;1.00
1137;DHT22;557;48.466;7.950;2023-06-01T00:19:43;14.30;1.00
1137;DHT22;557;48.466;7.950;2023-06-01T00:22:30;14.20;99.90
1137;DHT22;557;48.466;7.950;2023-06-01T00:25:20;14.20;99.90
1137;DHT22;557;48.466;7.950;2023-06-01T00:28:07;14.20;1.00
1137;DHT22;557;48.466;7.950;2023-06-01T00:30:56;14.20;99.90
1137;DHT22;557;48.466;7.950;2023-06-01T00:33:44;14.10;99.90
1137;DHT22;557;48.466;7.950;2023-06-01T00:36:31;14.20;99.90
1137;DHT22;557;48.466;7.950;2023-06-01T00:39:18;14.10;99.90
1137;DHT22;557;48.466;7.950;2023-06-01T00:42:06;14.10;1.00
1137;DHT22;557;48.466;7.950;2023-06-01T00:44:53;14.20;99.90
1137;DHT22;557;48.466;7.950;2023-06-01T00:47:43;14.10;99.90
1137;DHT22;557;48.466;7.950;2023-06-01T00:50:30;14.10;99.90
1137;DHT22;557;48.466;7.950;2023-06-01T00:53:19;14.10;1.00
1137;DHT22;557;48.466;7.950;2023-06-01T00:56:07;14.00;99.90
1137;DHT22;557;48.466;7.950;2023-06-01T00:58:54;13.90;1.00
1137;DHT22;557;48.466;7.950;2023-06-01T01:01:41;13.90;1.00
1137;DHT22;557;48.466;7.950;2023-06-01T01:04:31;13.80;1.00
1137;DHT22;557;48.466;7.950;2023-06-01T01:07:23;13.90;99.90
1137;DHT22;557;48.466;7.950;2023-06-01T01:10:24;13.80;1.00
1137;DHT22;557;48.466;7.950;2023-06-01T01:13:16;13.80;1.00
1137;DHT22;557;48.466;7.950;2023-06-01T01:16:10;13.90;99.90
1137;DHT22;557;48.466;7.950;2023-06-01T01:19:03;13.80;1.00
1137;DHT22;557;48.466;7.950;2023-06-01T01:22:02;13.70;1.00
1137;DHT22;557;48.466;7.950;2023-06-01T01:25:10;13.70;99.90
1137;DHT22;557;48.466;7.950;2023-06-01T01:28:10;13.50;1.00
1137;DHT22;557;48.466;7.950;2023-06-01T01:31:03;13.50;23.30
1137;DHT22;557;48.466;7.950;2023-06-01T01:33:54;13.40;99.90
1137;DHT22;557;48.466;7.950;2023-06-01T01:36:42;13.50;1.00
1137;DHT22;557;48.466;7.950;2023-06-01T01:39:30;13.50;1.00
1137;DHT22;557;48.466;7.950;2023-06-01T01:42:17;13.50;99.90
1137;DHT22;557;48.466;7.950;2023-06-01T01:45:05;13.40;99.90
1137;DHT22;557;48.466;7.950;2023-06-01T01:47:59;13.40;1.00
1137;DHT22;557;48.466;7.950;2023-06-01T01:50:51;13.40;1.00
1137;DHT22;557;48.466;7.950;2023-06-01T01:53:39;13.40;1.00
1137;DHT22;557;48.466;7.950;2023-06-01T01:56:29;13.40;1.00
1137;DHT22;557;48.466;7.950;2023-06-01T01:59:17;13.30;1.00
1137;DHT22;557;48.466;7.950;2023-06-01T02:02:05;13.50;99.90
1137;DHT22;557;48.466;7.950;2023-06-01T02:04:54;13.50;99.90
1137;DHT22;557;48.466;7.950;2023-06-01T02:07:41;13.40;1.00
1137;DHT22;557;48.466;7.950;2023-06-01T02:10:28;13.40;1.00
1137;DHT22;557;48.466;7.950;2023-06-01T02:13:16;13.30;1.00
1137;DHT22;557;48.466;7.950;2023-06-01T02:16:03;13.30;1.00
1137;DHT22;557;48.466;7.950;2023-06-01T02:18:51;13.10;99.90
1137;DHT22;557;48.466;7.950;2023-06-01T02:21:40;13.10;99.90
1137;DHT22;557;48.466;7.950;2023-06-01T02:24:28;13.00;1.00
1137;DHT22;557;48.466;7.950;2023-06-01T02:27:16;12.90;99.90
1137;DHT22;557;48.466;7.950;2023-06-01T02:30:04;12.90;99.90
1137;DHT22;557;48.466;7.950;2023-06-01T02:32:53;12.80;99.90
1137;DHT22;557;48.466;7.950;2023-06-01T02:35:41;12.90;1.00
1137;DHT22;557;48.466;7.950;2023-06-01T02:38:29;12.80;91.10
1137;DHT22;557;48.466;7.950;2023-06-01T02:41:17;12.80;1.00
1137;DHT22;557;48.466;7.950;2023-06-01T02:44:04;12.80;99.90
1137;DHT22;557;48.466;7.950;2023-06-01T02:46:51;12.80;99.90
1137;DHT22;557;48.466;7.950;2023-06-01T02:49:38;12.70;99.90
1137;DHT22;557;48.466;7.950;2023-06-01T02:52:26;12.80;99.90
1137;DHT22;557;48.466;7.950;2023-06-01T02:55:15;12.80;99.90
1137;DHT22;557;48.466;7.950;2023-06-01T02:58:02;12.80;70.40
1137;DHT22;557;48.466;7.950;2023-06-01T03:00:50;12.80;72.20
1137;DHT22;557;48.466;7.950;2023-06-01T03:03:37;12.90;1.00
1137;DHT22;557;48.466;7.950;2023-06-01T03:06:25;12.80;1.00
1137;DHT22;557;48.466;7.950;2023-06-01T03:09:17;12.80;1.00
1137;DHT22;557;48.466;7.950;2023-06-01T03:12:06;12.70;99.90
1137;DHT22;557;48.466;7.950;2023-06-01T03:14:54;12.70;1.00
1137;DHT22;557;48.466;7.950;2023-06-01T03:17:41;12.70;99.90
1137;DHT22;557;48.466;7.950;2023-06-01T03:20:29;12.60;1.00
1137;DHT22;557;48.466;7.950;2023-06-01T03:23:16;12.60;1.00
1137;DHT22;557;48.466;7.950;2023-06-01T03:26:04;12.40;1.00
1137;DHT22;557;48.466;7.950;2023-06-01T03:28:53;12.40;1.00
1137;DHT22;557;48.466;7.950;2023-06-01T03:31:42;12.30;1.00
1137;DHT22;557;48.466;7.950;2023-06-01T03:34:29;12.20;1.00
1137;DHT22;557;48.466;7.950;2023-06-01T03:37:18;12.20;1.00
1137;DHT22;557;48.466;7.950;2023-06-01T03:40:07;12.20;1.00
1137;DHT22;557;48.466;7.950;2023-06-01T03:42:57;12.20;1.00
1137;DHT22;557;48.466;7.950;2023-06-01T03:45:46;12.20;1.00
1137;DHT22;557;48.466;7.950;2023-06-01T03:48:33;12.20;1.00
1137;DHT22;557;48.466;7.950;2023-06-01T03:51:21;12.10;1.00
1137;DHT22;557;48.466;7.950;2023-06-01T03:54:08;12.00;1.00
1137;DHT22;557;48.466;7.950;2023-06-01T03:56:55;12.00;1.00
1137;DHT22;557;48.466;7.950;2023-06-01T03:59:43;12.10;1.00
1137;DHT22;557;48.466;7.950;2023-06-01T04:02:32;12.00;1.00
1137;DHT22;557;48.466;7.950;2023-06-01T04:05:19;12.00;1.00
1137;DHT22;557;48.466;7.950;2023-06-01T04:08:07;12.00;1.00
1137;DHT22;557;48.466;7.950;2023-06-01T04:10:54;12.00;1.00
1137;DHT22;557;48.466;7.950;2023-06-01T04:13:42;12.00;1.00
1137;DHT22;557;48.466;7.950;2023-06-01T04:16:29;12.00;1.00
1137;DHT22;557;48.466;7.950;2023-06-01T04:19:18;12.00;1.00
1137;DHT22;557;48.466;7.950;2023-06-01T04:22:05;12.00;1.00
1137;DHT22;557;48.466;7.950;2023-06-01T04:24:53;12.20;1.00
1137;DHT22;557;48.466;7.950;2023-06-01T04:27:43;12.20;1.00
1137;DHT22;557;48.466;7.950;2023-06-01T04:30:31;12.20;1.00
1137;DHT22;557;48.466;7.950;2023-06-01T04:33:18;12.20;1.00
1137;DHT22;557;48.466;7.950;2023-06-01T04:36:07;12.30;1.00
1137;DHT22;557;48.466;7.950;2023-06-01T04:38:56;12.40;1.00
1137;DHT22;557;48.466;7.950;2023-06-01T04:41:44;12.60;1.00
1137;DHT22;557;48.466;7.950;2023-06-01T04:44:33;12.60;1.00
1137;DHT22;557;48.466;7.950;2023-06-01T04:47:20;12.70;1.00
1137;DHT22;557;48.466;7.950;2023-06-01T04:50:09;12.70;99.90
1137;DHT22;557;48.466;7.950;2023-06-01T04:52:58;12.80;99.90
1137;DHT22;557;48.466;7.950;2023-06-01T04:55:45;12.90;99.90
1137;DHT22;557;48.466;7.950;2023-06-01T04:58:34;13.10;1.00
1137;DHT22;557;48.466;7.950;2023-06-01T05:01:22;13.20;99.90
1137;DHT22;557;48.466;7.950;2023-06-01T05:04:10;13.40;99.90
1137;DHT22;557;48.466;7.950;2023-06-01T05:06:58;13.60;1.00
1137;DHT22;557;48.466;7.950;2023-06-01T05:09:47;13.70;99.90
1137;DHT22;557;48.466;7.950;2023-06-01T05:12:35;13.90;30.40
1137;DHT22;557;48.466;7.950;2023-06-01T05:15:22;14.20;99.90
1137;DHT22;557;48.466;7.950;2023-06-01T05:18:10;14.40;99.90
1137;DHT22;557;48.466;7.950;2023-06-01T05:20:58;14.60;99.90
1137;DHT22;557;48.466;7.950;2023-06-01T05:23:46;14.70;1.00
1137;DHT22;557;48.466;7.950;2023-06-01T05:26:34;14.80;99.90
1137;DHT22;557;48.466;7.950;2023-06-01T05:29:22;14.80;99.90
1137;DHT22;557;48.466;7.950;2023-06-01T05:32:09;14.90;99.90
1137;DHT22;557;48.466;7.950;2023-06-01T05:34:57;15.20;99.90
1137;DHT22;557;48.466;7.950;2023-06-01T05:37:44;15.40;99.90
1137;DHT22;557;48.466;7.950;2023-06-01T05:40:31;15.50;99.90
1137;DHT22;557;48.466;7.950;2023-06-01T05:43:20;15.60;40.50
1137;DHT22;557;48.466;7.950;2023-06-01T05:46:08;15.70;1.00
1137;DHT22;557;48.466;7.950;2023-06-01T05:48:55;15.80;1.00
1137;DHT22;557;48.466;7.950;2023-06-01T05:51:42;16.00;1.00
1137;DHT22;557;48.466;7.950;2023-06-01T05:54:30;16.00;1.00
1137;DHT22;557;48.466;7.950;2023-06-01T05:57:17;16.20;1.00
1137;DHT22;557;48.466;7.950;2023-06-01T06:00:07;16.40;1.00
1137;DHT22;557;48.466;7.950;2023-06-01T06:02:58;16.40;1.00
1137;DHT22;557;48.466;7.950;2023-06-01T06:05:45;16.40;1.00
1137;DHT22;557;48.466;7.950;2023-06-01T06:08:33;16.40;1.00
1137;DHT22;557;48.466;7.950;2023-06-01T06:11:20;16.50;1.00
1137;DHT22;557;48.466;7.950;2023-06-01T06:14:08;16.70;99.90
1137;DHT22;557;48.466;7.950;2023-06-01T06:16:58;16.90;1.00
1137;DHT22;557;48.466;7.950;2023-06-01T06:19:46;17.10;99.90
1137;DHT22;557;48.466;7.950;2023-06-01T06:22:34;17.10;99.90
1137;DHT22;557;48.466;7.950;2023-06-01T06:25:22;17.30;99.90
1137;DHT22;557;48.466;7.950;2023-06-01T06:28:09;17.40;99.90
1137;DHT22;557;48.466;7.950;2023-06-01T06:30:58;17.50;99.90
1137;DHT22;557;48.466;7.950;2023-06-01T06:33:47;17.40;99.90
1137;DHT22;557;48.466;7.950;2023-06-01T06:36:34;17.30;99.90
1137;DHT22;557;48.466;7.950;2023-06-01T06:39:22;17.10;99.90
1137;DHT22;557;48.466;7.950;2023-06-01T06:42:10;17.40;99.90
1137;DHT22;557;48.466;7.950;2023-06-01T06:44:57;17.60;99.90
1137;DHT22;557;48.466;7.950;2023-06-01T06:47:45;17.70;99.90
1137;DHT22;557;48.466;7.950;2023-06-01T06:50:33;17.80;99.90
1137;DHT22;557;48.466;7.950;2023-06-01T06:53:21;17.90;99.90
1137;DHT22;557;48.466;7.950;2023-06-01T06:56:09;18.10;99.90
1137;DHT22;557;48.466;7.950;2023-06-01T06:58:56;18.20;99.90
1137;DHT22;557;48.466;7.950;2023-06-01T07:01:43;18.40;99.90
1137;DHT22;557;48.466;7.950;2023-06-01T07:04:31;18.70;99.90
1137;DHT22;557;48.466;7.950;2023-06-01T07:07:19;18.80;99.90
1137;DHT22;557;48.466;7.950;2023-06-01T07:10:07;18.90;99.90
1137;DHT22;557;48.466;7.950;2023-06-01T07:12:54;19.10;99.90
1137;DHT22;557;48.466;7.950;2023-06-01T07:15:42;19.50;99.90
1137;DHT22;557;48.466;7.950;2023-06-01T07:18:29;19.50;99.90
1137;DHT22;557;48.466;7.950;2023-06-01T07:21:16;19.50;99.90
1137;DHT22;557;48.466;7.950;2023-06-01T07:24:06;19.50;99.90
1137;DHT22;557;48.466;7.950;2023-06-01T07:26:54;19.50;99.90
1137;DHT22;557;48.466;7.950;2023-06-01T07:29:43;19.80;99.90
1137;DHT22;557;48.466;7.950;2023-06-01T07:32:31;20.20;99.90
1137;DHT22;557;48.466;7.950;2023-06-01T07:35:18;20.30;99.90
1137;DHT22;557;48.466;7.950;2023-06-01T07:38:06;20.50;99.90
1137;DHT22;557;48.466;7.950;2023-06-01T07:40:55;20.90;94.00
1137;DHT22;557;48.466;7.950;2023-06-01T07:43:42;21.20;91.60
1137;DHT22;557;48.466;7.950;2023-06-01T07:46:29;21.40;69.60
1137;DHT22;557;48.466;7.950;2023-06-01T07:49:17;21.70;51.60
1137;DHT22;557;48.466;7.950;2023-06-01T07:52:05;22.00;44.20
1137;DHT22;557;48.466;7.950;2023-06-01T07:54:53;22.10;44.20
1137;DHT22;557;48.466;7.950;2023-06-01T07:57:41;22.30;47.10
1137;DHT22;557;48.466;7.950;2023-06-01T08:00:29;22.50;43.50
1137;DHT22;557;48.466;7.950;2023-06-01T08:03:16;22.70;43.20
1137;DHT22;557;48.466;7.950;2023-06-01T08:06:07;22.90;45.40
1137;DHT22;557;48.466;7.950;2023-06-01T08:08:54;23.20;40.10
1137;DHT22;557;48.466;7.950;2023-06-01T08:11:42;23.60;38.90
1137;DHT22;557;48.466;7.950;2023-06-01T08:14:31;23.70;27.60
1137;DHT22;557;48.466;7.950;2023-06-01T08:17:19;23.80;24.00
1137;DHT22;557;48.466;7.950;2023-06-01T08:20:07;24.00;25.80
1137;DHT22;557;48.466;7.950;2023-06-01T08:22:56;24.40;25.80
1137;DHT22;557;48.466;7.950;2023-06-01T08:25:45;24.40;19.00
1137;DHT22;557;48.466;7.950;2023-06-01T08:28:32;24.20;15.00
1137;DHT22;557;48.466;7.950;2023-06-01T08:31:22;24.40;17.10
1137;DHT22;557;48.466;7.950;2023-06-01T08:34:09;24.50;13.50
1137;DHT22;557;48.466;7.950;2023-06-01T08:36:56;24.80;12.80
1137;DHT22;557;48.466;7.950;2023-06-01T08:39:44;25.00;16.80
1137;DHT22;557;48.466;7.950;2023-06-01T08:42:38;25.30;10.30
1137;DHT22;557;48.466;7.950;2023-06-01T08:45:26;25.20;1.60
1137;DHT22;557;48.466;7.950;2023-06-01T08:48:18;25.30;3.90
1137;DHT22;557;48.466;7.950;2023-06-01T08:51:06;25.20;1.00
1137;DHT22;557;48.466;7.950;2023-06-01T08:53:57;25.10;1.00
1137;DHT22;557;48.466;7.950;2023-06-01T08:56:44;25.30;1.00
1137;DHT22;557;48.466;7.950;2023-06-01T08:59:32;25.50;1.00
1137;DHT22;557;48.466;7.950;2023-06-01T09:02:20;25.70;1.00
1137;DHT22;557;48.466;7.950;2023-06-01T09:05:09;25.90;1.00
1137;DHT22;557;48.466;7.950;2023-06-01T09:07:57;26.00;1.00
1137;DHT22;557;48.466;7.950;2023-06-01T09:10:44;26.10;1.00
1137;DHT22;557;48.466;7.950;2023-06-01T09:13:32;26.40;1.00
1137;DHT22;557;48.466;7.950;2023-06-01T09:16:20;26.70;1.40
1137;DHT22;557;48.466;7.950;2023-06-01T09:19:07;26.80;1.00
1137;DHT22;557;48.466;7.950;2023-06-01T09:21:59;26.80;1.00
1137;DHT22;557;48.466;7.950;2023-06-01T09:24:57;26.90;1.00
1137;DHT22;557;48.466;7.950;2023-06-01T09:27:46;27.20;1.00
1137;DHT22;557;48.466;7.950;2023-06-01T09:30:39;27.30;1.00
1137;DHT22;557;48.466;7.950;2023-06-01T09:33:28;27.20;1.00
1137;DHT22;557;48.466;7.950;2023-06-01T09:36:23;27.20;1.00
1137;DHT22;557;48.466;7.950;2023-06-01T09:39:14;27.40;1.00
1137;DHT22;557;48.466;7.950;2023-06-01T09:42:02;27.30;1.00
1137;DHT22;557;48.466;7.950;2023-06-01T09:44:50;27.30;1.00
1137;DHT22;557;48.466;7.950;2023-06-01T09:47:37;27.20;1.00
1137;DHT22;557;48.466;7.950;2023-06-01T09:50:34;27.20;1.00
1137;DHT22;557;48.466;7.950;2023-06-01T09:53:22;27.60;1.00
1137;DHT22;557;48.466;7.950;2023-06-01T09:56:11;27.90;1.00
1137;DHT22;557;48.466;7.950;2023-06-01T09:58:59;28.00;1.00
1137;DHT22;557;48.466;7.950;2023-06-01T10:01:50;28.30;1.00
1137;DHT22;557;48.466;7.950;2023-06-01T10:04:40;28.40;1.00
1137;DHT22;557;48.466;7.950;2023-06-01T10:07:28;28.40;1.00
1137;DHT22;557;48.466;7.950;2023-06-01T10:10:16;28.30;1.00
1137;DHT22;557;48.466;7.950;2023-06-01T10:13:05;28.60;1.00
1137;DHT22;557;48.466;7.950;2023-06-01T10:15:53;28.80;1.00
1137;DHT22;557;48.466;7.950;2023-06-01T10:18:41;29.10;1.00
1137;DHT22;557;48.466;7.950;2023-06-01T10:21:29;29.20;1.00
1137;DHT22;557;48.466;7.950;2023-06-01T10:24:18;29.10;1.00
1137;DHT22;557;48.466;7.950;2023-06-01T10:27:11;29.10;1.00
1137;DHT22;557;48.466;7.950;2023-06-01T10:30:01;29.00;1.00
1137;DHT22;557;48.466;7.950;2023-06-01T10:32:50;29.20;1.00
1137;DHT22;557;48.466;7.950;2023-06-01T10:36:01;29.30;1.00
1137;DHT22;557;48.466;7.950;2023-06-01T10:38:49;29.40;1.00
1137;DHT22;557;48.466;7.950;2023-06-01T10:41:36;29.40;1.00
1137;DHT22;557;48.466;7.950;2023-06-01T10:44:46;29.80;1.00
1137;DHT22;557;48.466;7.950;2023-06-01T10:47:47;29.60;1.00
1137;DHT22;557;48.466;7.950;2023-06-01T10:50:35;29.20;1.00
1137;DHT22;557;48.466;7.950;2023-06-01T10:53:27;29.20;1.00
1137;DHT22;557;48.466;7.950;2023-06-01T10:56:19;29.50;1.00
1137;DHT22;557;48.466;7.950;2023-06-01T10:59:11;29.70;1.00
1137;DHT22;557;48.466;7.950;2023-06-01T11:02:03;29.90;1.00
1137;DHT22;557;48.466;7.950;2023-06-01T11:04:52;30.20;1.00
1137;DHT22;557;48.466;7.950;2023-06-01T11:07:41;30.40;1.00
1137;DHT22;557;48.466;7.950;2023-06-01T11:10:53;30.70;1.00
1137;DHT22;557;48.466;7.950;2023-06-01T11:13:42;30.60;1.00
1137;DHT22;557;48.466;7.950;2023-06-01T11:16:30;30.90;1.00
1137;DHT22;557;48.466;7.950;2023-06-01T11:19:19;30.80;1.00
1137;DHT22;557;48.466;7.950;2023-06-01T11:22:11;30.90;1.00
1137;DHT22;557;48.466;7.950;2023-06-01T11:25:03;31.20;1.00
1137;DHT22;557;48.466;7.950;2023-06-01T11:27:51;31.40;1.00
1137;DHT22;557;48.466;7.950;2023-06-01T11:30:41;31.80;1.00
1137;DHT22;557;48.466;7.950;2023-06-01T11:33:29;32.00;1.00
1137;DHT22;557;48.466;7.950;2023-06-01T11:36:17;31.90;1.00
1137;DHT22;557;48.466;7.950;2023-06-01T11:39:22;32.00;1.00
1137;DHT22;557;48.466;7.950;2023-06-01T11:42:11;32.20;1.00
1137;DHT22;557;48.466;7.950;2023-06-01T11:44:59;32.40;1.00
1137;DHT22;557;48.466;7.950;2023-06-01T11:47:46;32.40;1.00
1137;DHT22;557;48.466;7.950;2023-06-01T11:50:33;32.10;1.00
1137;DHT22;557;48.466;7.950;2023-06-01T11:53:21;32.10;1.00
1137;DHT22;557;48.466;7.950;2023-06-01T11:56:10;32.30;1.00
1137;DHT22;557;48.466;7.950;2023-06-01T11:58:58;32.10;1.00
1137;DHT22;557;48.466;7.950;2023-06-01T12:01:47;32.50;1.00
1137;DHT22;557;48.466;7.950;2023-06-01T12:04:35;32.80;1.00
1137;DHT22;557;48.466;7.950;2023-06-01T12:07:23;32.70;1.00
1137;DHT22;557;48.466;7.950;2023-06-01T12:10:11;32.60;1.00
1137;DHT22;557;48.466;7.950;2023-06-01T12:13:01;32.30;1.00
1137;DHT22;557;48.466;7.950;2023-06-01T12:15:51;32.60;1.00
1137;DHT22;557;48.466;7.950;2023-06-01T12:18:39;32.20;1.00
1137;DHT22;557;48.466;7.950;2023-06-01T12:21:26;31.90;1.00
1137;DHT22;557;48.466;7.950;2023-06-01T12:24:14;32.00;1.00
1137;DHT22;557;48.466;7.950;2023-06-01T12:27:02;32.30;1.00
1137;DHT22;557;48.466;7.950;2023-06-01T12:30:00;32.60;1.00
1137;DHT22;557;48.466;7.950;2023-06-01T12:32:48;32.80;1.00
1137;DHT22;557;48.466;7.950;2023-06-01T12:35:47;32.90;1.00
1137;DHT22;557;48.466;7.950;2023-06-01T12:38:35;32.90;1.00
1137;DHT22;557;48.466;7.950;2023-06-01T12:41:23;33.10;1.00
1137;DHT22;557;48.466;7.950;2023-06-01T12:44:18;33.10;1.00
1137;DHT22;557;48.466;7.950;2023-06-01T12:47:07;32.80;1.00
1137;DHT22;557;48.466;7.950;2023-06-01T12:50:04;32.70;1.00
1137;DHT22;557;48.466;7.950;2023-06-01T12:52:52;32.00;1.00
1137;DHT22;557;48.466;7.950;2023-06-01T12:55:39;32.10;1.00
1137;DHT22;557;48.466;7.950;2023-06-01T12:58:27;32.00;1.00
1137;DHT22;557;48.466;7.950;2023-06-01T13:01:15;31.20;1.00
1137;DHT22;557;48.466;7.950;2023-06-01T13:04:04;31.40;1.00
1137;DHT22;557;48.466;7.950;2023-06-01T13:06:51;31.80;1.00
1137;DHT22;557;48.466;7.950;2023-06-01T13:09:38;32.10;1.00
1137;DHT22;557;48.466;7.950;2023-06-01T13:12:26;32.40;1.00
1137;DHT22;557;48.466;7.950;2023-06-01T13:15:13;31.80;1.00
1137;DHT22;557;48.466;7.950;2023-06-01T13:18:00;31.60;1.00
1137;DHT22;557;48.466;7.950;2023-06-01T13:20:51;32.00;1.00
1137;DHT22;557;48.466;7.950;2023-06-01T13:23:38;32.30;1.00
1137;DHT22;557;48.466;7.950;2023-06-01T13:26:25;32.50;1.00
1137;DHT22;557;48.466;7.950;2023-06-01T13:29:13;32.80;1.00
1137;DHT22;557;48.466;7.950;2023-06-01T13:32:00;33.00;1.00
1137;DHT22;557;48.466;7.950;2023-06-01T13:34:47;33.20;1.00
1137;DHT22;557;48.466;7.950;2023-06-01T13:37:36;33.00;1.00
1137;DHT22;557;48.466;7.950;2023-06-01T13:40:23;33.10;1.00
1137;DHT22;557;48.466;7.950;2023-06-01T13:43:11;33.00;1.00
1137;DHT22;557;48.466;7.950;2023-06-01T13:45:58;33.00;1.00
1137;DHT22;557;48.466;7.950;2023-06-01T13:48:45;33.00;1.00
1137;DHT22;557;48.466;7.950;2023-06-01T13:51:33;33.20;1.00
1137;DHT22;557;48.466;7.950;2023-06-01T13:54:25;33.00;1.00
1137;DHT22;557;48.466;7.950;2023-06-01T13:57:12;32.90;1.00
1137;DHT22;557;48.466;7.950;2023-06-01T14:00:00;33.00;1.00
1137;DHT22;557;48.466;7.950;2023-06-01T14:02:47;32.80;1.00
1137;DHT22;557;48.466;7.950;2023-06-01T14:05:34;32.70;1.00
1137;DHT22;557;48.466;7.950;2023-06-01T14:08:21;32.60;1.00
1137;DHT22;557;48.466;7.950;2023-06-01T14:11:10;32.90;1.00
1137;DHT22;557;48.466;7.950;2023-06-01T14:13:57;33.00;1.00
1137;DHT22;557;48.466;7.950;2023-06-01T14:16:45;33.00;1.00
1137;DHT22;557;48.466;7.950;2023-06-01T14:19:32;33.20;1.00
1137;DHT22;557;48.466;7.950;2023-06-01T14:22:19;33.10;1.00
1137;DHT22;557;48.466;7.950;2023-06-01T14:25:07;33.20;1.00
1137;DHT22;557;48.466;7.950;2023-06-01T14:27:57;33.50;1.00
1137;DHT22;557;48.466;7.950;2023-06-01T14:30:44;33.80;1.00
1137;DHT22;557;48.466;7.950;2023-06-01T14:33:32;34.00;1.00
1137;DHT22;557;48.466;7.950;2023-06-01T14:36:20;33.90;1.00
1137;DHT22;557;48.466;7.950;2023-06-01T14:39:07;33.90;1.00
1137;DHT22;557;48.466;7.950;2023-06-01T14:41:55;33.60;1.00
1137;DHT22;557;48.466;7.950;2023-06-01T14:44:44;33.60;1.00
1137;DHT22;557;48.466;7.950;2023-06-01T14:47:31;33.70;1.00
1137;DHT22;557;48.466;7.950;2023-06-01T14:50:18;33.80;1.00
1137;DHT22;557;48.466;7.950;2023-06-01T14:53:06;33.90;1.00
1137;DHT22;557;48.466;7.950;2023-06-01T14:55:53;34.00;1.00
1137;DHT22;557;48.466;7.950;2023-06-01T14:58:41;34.00;1.00
1137;DHT22;557;48.466;7.950;2023-06-01T15:01:29;34.10;1.00
1137;DHT22;557;48.466;7.950;2023-06-01T15:04:17;34.20;1.00
1137;DHT22;557;48.466;7.950;2023-06-01T15:07:04;34.40;1.00
1137;DHT22;557;48.466;7.950;2023-06-01T15:09:52;34.40;1.00
1137;DHT22;557;48.466;7.950;2023-06-01T15:12:39;34.40;1.00
1137;DHT22;557;48.466;7.950;2023-06-01T15:15:26;34.40;1.00
1137;DHT22;557;48.466;7.950;2023-06-01T15:18:15;34.30;1.00
1137;DHT22;557;48.466;7.950;2023-06-01T15:21:03;34.00;1.00
1137;DHT22;557;48.466;7.950;2023-06-01T15:23:50;34.00;1.00
1137;DHT22;557;48.466;7.950;2023-06-01T15:26:37;34.30;1.00
1137;DHT22;557;48.466;7.950;2023-06-01T15:29:26;34.40;1.00
1137;DHT22;557;48.466;7.950;2023-06-01T15:32:13;34.80;1.00
1137;DHT22;557;48.466;7.950;2023-06-01T15:35:02;35.60;1.00
1137;DHT22;557;48.466;7.950;2023-06-01T15:37:50;36.20;1.00
1137;DHT22;557;48.466;7.950;2023-06-01T15:40:38;36.50;1.00
1137;DHT22;557;48.466;7.950;2023-06-01T15:43:25;36.60;1.00
1137;DHT22;557;48.466;7.950;2023-06-01T15:46:12;36.40;1.00
1137;DHT22;557;48.466;7.950;2023-06-01T15:49:00;36.40;1.00
1137;DHT22;557;48.466;7.950;2023-06-01T15:51:48;36.50;1.00
1137;DHT22;557;48.466;7.950;2023-06-01T15:54:36;36.70;1.00
1137;DHT22;557;48.466;7.950;2023-06-01T15:57:23;37.20;1.00
1137;DHT22;557;48.466;7.950;2023-06-01T16:00:12;37.80;1.00
1137;DHT22;557;48.466;7.950;2023-06-01T16:02:59;37.50;1.00
1137;DHT22;557;48.466;7.950;2023-06-01T16:05:46;37.20;1.00
1137;DHT22;557;48.466;7.950;2023-06-01T16:08:35;36.40;1.00
1137;DHT22;557;48.466;7.950;2023-06-01T16:11:23;34.70;1.00
1137;DHT22;557;48.466;7.950;2023-06-01T16:14:10;33.00;1.00
1137;DHT22;557;48.466;7.950;2023-06-01T16:16:58;32.10;1.00
1137;DHT22;557;48.466;7.950;2023-06-01T16:19:45;31.70;1.00
1137;DHT22;557;48.466;7.950;2023-06-01T16:22:32;31.30;1.00
1137;DHT22;557;48.466;7.950;2023-06-01T16:25:22;31.00;1.00
1137;DHT22;557;48.466;7.950;2023-06-01T16:28:12;30.70;1.00
1137;DHT22;557;48.466;7.950;2023-06-01T16:30:59;30.40;1.00
1137;DHT22;557;48.466;7.950;2023-06-01T16:33:46;30.20;1.00
1137;DHT22;557;48.466;7.950;2023-06-01T16:36:34;30.10;1.00
1137;DHT22;557;48.466;7.950;2023-06-01T16:39:25;29.80;1.00
1137;DHT22;557;48.466;7.950;2023-06-01T16:42:14;29.60;1.00
1137;DHT22;557;48.466;7.950;2023-06-01T16:45:01;29.30;1.00
1137;DHT22;557;48.466;7.950;2023-06-01T16:47:48;29.10;1.00
1137;DHT22;557;48.466;7.950;2023-06-01T16:50:36;29.10;1.00
1137;DHT22;557;48.466;7.950;2023-06-01T16:53:23;28.90;1.00
1137;DHT22;557;48.466;7.950;2023-06-01T16:56:10;28.70;1.00
1137;DHT22;557;48.466;7.950;2023-06-01T16:59:00;28.50;1.00
1137;DHT22;557;48.466;7.950;2023-06-01T17:01:47;28.40;1.00
1137;DHT22;557;48.466;7.950;2023-06-01T17:04:34;28.20;1.00
1137;DHT22;557;48.466;7.950;2023-06-01T17:07:21;28.00;1.00
1137;DHT22;557;48.466;7.950;2023-06-01T17:10:09;27.90;1.00
1137;DHT22;557;48.466;7.950;2023-06-01T17:12:57;27.90;1.00
1137;DHT22;557;48.466;7.950;2023-06-01T17:15:45;27.70;1.00
1137;DHT22;557;48.466;7.950;2023-06-01T17:18:33;27.60;1.00
1137;DHT22;557;48.466;7.950;2023-06-01T17:21:20;27.60;1.00
1137;DHT22;557;48.466;7.950;2023-06-01T17:24:08;27.50;1.00
1137;DHT22;557;48.466;7.950;2023-06-01T17:26:55;27.40;1.00
1137;DHT22;557;48.466;7.950;2023-06-01T17:29:42;27.40;1.00
1137;DHT22;557;48.466;7.950;2023-06-01T17:32:31;27.40;1.00
1137;DHT22;557;48.466;7.950;2023-06-01T17:35:18;27.30;1.00
1137;DHT22;557;48.466;7.950;2023-06-01T17:38:06;27.20;1.00
1137;DHT22;557;48.466;7.950;2023-06-01T17:40:53;27.10;1.00
1137;DHT22;557;48.466;7.950;2023-06-01T17:43:41;27.00;1.00
1137;DHT22;557;48.466;7.950;2023-06-01T17:46:28;26.90;1.00
1137;DHT22;557;48.466;7.950;2023-06-01T17:49:18;26.90;1.00
1137;DHT22;557;48.466;7.950;2023-06-01T17:52:06;26.80;1.00
1137;DHT22;557;48.466;7.950;2023-06-01T17:54:53;26.70;1.00
1137;DHT22;557;48.466;7.950;2023-06-01T17:57:41;26.60;1.00
1137;DHT22;557;48.466;7.950;2023-06-01T18:00:28;26.60;1.00
1137;DHT22;557;48.466;7.950;2023-06-01T18:03:17;26.50;1.00
1137;DHT22;557;48.466;7.950;2023-06-01T18:06:06;26.40;1.00
1137;DHT22;557;48.466;7.950;2023-06-01T18:08:53;26.30;1.00
1137;DHT22;557;48.466;7.950;2023-06-01T18:11:40;26.20;1.00
1137;DHT22;557;48.466;7.950;2023-06-01T18:14:28;26.00;1.00
1137;DHT22;557;48.466;7.950;2023-06-01T18:17:15;26.00;1.00
1137;DHT22;557;48.466;7.950;2023-06-01T18:20:03;25.80;1.00
1137;DHT22;557;48.466;7.950;2023-06-01T18:22:52;25.80;1.00
1137;DHT22;557;48.466;7.950;2023-06-01T18:25:39;25.60;1.00
1137;DHT22;557;48.466;7.950;2023-06-01T18:28:27;25.50;1.00
1137;DHT22;557;48.466;7.950;2023-06-01T18:31:14;25.40;1.00
1137;DHT22;557;48.466;7.950;2023-06-01T18:34:02;25.30;1.00
1137;DHT22;557;48.466;7.950;2023-06-01T18:36:49;25.20;1.00
1137;DHT22;557;48.466;7.950;2023-06-01T18:39:37;25.10;1.00
1137;DHT22;557;48.466;7.950;2023-06-01T18:42:25;25.00;1.00
1137;DHT22;557;48.466;7.950;2023-06-01T18:45:12;24.90;1.00
1137;DHT22;557;48.466;7.950;2023-06-01T18:47:59;24.80;1.00
1137;DHT22;557;48.466;7.950;2023-06-01T18:50:48;24.70;1.00